Time;durP1;ratioP1;P1;durP2;ratioP2;P2;SDS_P1;SDS_P2;PMS_P1;PMS_P2;Temp;Humidity;BMP_temperature;BMP_pressure;BME280_temperature;BME280_humidity;BME280_pressure;Samples;Min_cycle;Max_cycle;Signal;HPM_P1;HPM_P2
2023/02/08 05:49:50;;;;;;;40.75;18.75;;;;;;;;;;5300813;24;20021;-59
2023/02/08 05:52:16;;;;;;;39.80;19.05;;;;;;;;;;4805662;29;20050;-59
2023/02/08 05:54:42;;;;;;;44.58;20.20;;;;;;;;;;4805862;29;20451;-59
2023/02/08 05:57:08;;;;;;;50.03;20.92;;;;;;;;;;4805245;29;20027;-59
2023/02/08 05:59:34;;;;;;;63.33;29.80;;;;;;;;;;4805767;29;20390;-59
2023/02/08 06:02:00;;;;;;;49.10;23.58;;;;;;;;;;4805761;29;20035;-58
2023/02/08 06:04:26;;;;;;;45.42;22.17;;;;;;;;;;4804874;29;20026;-59
2023/02/08 06:06:52;;;;;;;50.63;21.98;;;;;;;;;;4803944;29;20047;-59
2023/02/08 06:09:18;;;;;;;138.02;61.42;;;;;;;;;;4804728;29;20023;-68
2023/02/08 06:11:44;;;;;;;68.57;32.13;;;;;;;;;;4804451;29;20095;-73
2023/02/08 06:14:10;;;;;;;44.28;20.65;;;;;;;;;;4804228;29;20026;-59
2023/02/08 06:16:36;;;;;;;65.40;30.15;;;;;;;;;;4804247;29;20031;-59
2023/02/08 06:19:02;;;;;;;71.82;37.03;;;;;;;;;;4804249;29;20157;-60
2023/02/08 06:21:28;;;;;;;51.92;24.50;;;;;;;;;;4803941;29;20042;-60
2023/02/08 06:23:54;;;;;;;53.80;25.70;;;;;;;;;;4787533;29;20812;-60
2023/02/08 06:26:20;;;;;;;46.72;22.02;;;;;;;;;;4804970;29;20054;-72
2023/02/08 06:28:46;;;;;;;46.83;22.50;;;;;;;;;;4805090;29;20818;-59
2023/02/08 06:31:12;;;;;;;47.45;22.35;;;;;;;;;;4804179;29;20110;-60
2023/02/08 06:33:38;;;;;;;51.88;24.70;;;;;;;;;;4803824;29;20026;-63
2023/02/08 06:36:04;;;;;;;58.42;28.27;;;;;;;;;;4803981;29;20027;-60
2023/02/08 06:38:30;;;;;;;50.47;23.35;;;;;;;;;;4803701;29;20023;-59
2023/02/08 06:40:56;;;;;;;49.58;22.33;;;;;;;;;;4804243;29;20038;-60
2023/02/08 06:43:22;;;;;;;50.97;23.60;;;;;;;;;;4804009;29;20066;-60
2023/02/08 06:45:48;;;;;;;50.83;22.65;;;;;;;;;;4804909;29;20074;-61
2023/02/08 06:48:15;;;;;;;50.95;21.98;;;;;;;;;;4805026;29;20072;-60
2023/02/08 06:50:41;;;;;;;47.30;22.77;;;;;;;;;;4804335;29;20119;-60
2023/02/08 06:53:07;;;;;;;62.53;27.70;;;;;;;;;;4804785;29;20114;-60
2023/02/08 06:55:33;;;;;;;86.00;40.50;;;;;;;;;;4803762;29;20038;-60
2023/02/08 06:57:59;;;;;;;50.03;24.52;;;;;;;;;;4804263;29;20034;-60
2023/02/08 07:00:25;;;;;;;57.50;27.63;;;;;;;;;;4804839;29;20027;-61
2023/02/08 07:02:51;;;;;;;53.15;25.52;;;;;;;;;;4804426;29;20039;-60
2023/02/08 07:05:17;;;;;;;54.75;25.27;;;;;;;;;;4804548;29;20034;-62
2023/02/08 07:07:44;;;;;;;60.03;30.85;;;;;;;;;;4804192;29;20039;-60
2023/02/08 07:10:10;;;;;;;73.63;34.08;;;;;;;;;;4806255;29;20031;-68
2023/02/08 07:12:36;;;;;;;64.80;30.98;;;;;;;;;;4804250;29;20400;-71
2023/02/08 07:15:02;;;;;;;58.90;27.73;;;;;;;;;;4803340;29;20041;-59
2023/02/08 07:17:28;;;;;;;64.45;29.60;;;;;;;;;;4804298;29;20037;-60
2023/02/08 07:19:54;;;;;;;59.72;26.75;;;;;;;;;;4804229;29;20038;-62
2023/02/08 07:22:20;;;;;;;74.22;34.67;;;;;;;;;;4804167;29;20038;-59
2023/02/08 07:24:46;;;;;;;60.00;27.05;;;;;;;;;;4804268;29;20038;-70
2023/02/08 07:27:13;;;;;;;57.60;25.85;;;;;;;;;;4803615;29;20050;-59
2023/02/08 07:29:40;;;;;;;57.17;27.08;;;;;;;;;;4803506;29;20503;-59
2023/02/08 07:32:07;;;;;;;63.85;27.83;;;;;;;;;;4803932;29;20113;-59
2023/02/08 07:34:34;;;;;;;63.13;30.52;;;;;;;;;;4803671;29;20034;-60
2023/02/08 07:37:00;;;;;;;63.05;30.23;;;;;;;;;;4803821;29;20062;-59
2023/02/08 07:39:26;;;;;;;56.65;27.15;;;;;;;;;;4803109;29;20043;-59
2023/02/08 07:41:52;;;;;;;68.40;30.73;;;;;;;;;;4804185;29;20037;-62
2023/02/08 07:44:18;;;;;;;64.70;30.83;;;;;;;;;;4803837;29;20045;-60
2023/02/08 07:46:44;;;;;;;62.70;29.40;;;;;;;;;;4804000;29;20090;-68
2023/02/08 07:49:11;;;;;;;61.50;29.10;;;;;;;;;;4804158;29;20039;-61
2023/02/08 07:51:37;;;;;;;60.47;28.02;;;;;;;;;;4803483;29;20090;-60
2023/02/08 07:54:03;;;;;;;65.30;31.42;;;;;;;;;;4804103;29;20035;-59
2023/02/08 07:56:29;;;;;;;68.95;32.75;;;;;;;;;;4804133;29;20043;-74
2023/02/08 07:58:55;;;;;;;60.97;28.63;;;;;;;;;;4804244;29;20034;-59
2023/02/08 08:01:21;;;;;;;60.17;28.85;;;;;;;;;;4803828;29;20504;-59
2023/02/08 08:03:47;;;;;;;70.38;31.58;;;;;;;;;;4804004;29;20721;-74
2023/02/08 08:06:13;;;;;;;67.95;31.88;;;;;;;;;;4803844;29;20043;-62
2023/02/08 08:08:39;;;;;;;68.05;31.25;;;;;;;;;;4803911;29;20023;-59
2023/02/08 08:11:05;;;;;;;65.90;33.05;;;;;;;;;;4803998;29;20038;-59
2023/02/08 08:13:31;;;;;;;69.05;32.30;;;;;;;;;;4804118;29;20027;-60
2023/02/08 08:15:58;;;;;;;65.90;31.25;;;;;;;;;;4803677;29;20046;-59
2023/02/08 08:18:24;;;;;;;65.63;30.98;;;;;;;;;;4803841;29;20023;-59
2023/02/08 08:20:50;;;;;;;66.43;31.05;;;;;;;;;;4805554;29;20043;-62
2023/02/08 08:23:18;;;;;;;65.50;32.50;;;;;;;;;;4807314;29;20057;-59
2023/02/08 08:25:44;;;;;;;74.97;33.95;;;;;;;;;;4807184;29;20038;-59
2023/02/08 08:28:10;;;;;;;73.95;34.05;;;;;;;;;;4807363;29;20035;-59
2023/02/08 08:30:36;;;;;;;76.60;35.45;;;;;;;;;;4807300;29;20046;-71
2023/02/08 08:33:02;;;;;;;75.28;35.55;;;;;;;;;;4807226;29;20109;-60
2023/02/08 08:35:28;;;;;;;83.40;38.67;;;;;;;;;;4807150;29;20444;-59
2023/02/08 08:37:54;;;;;;;90.95;41.53;;;;;;;;;;4807267;29;20039;-59
2023/02/08 08:40:20;;;;;;;90.15;39.92;;;;;;;;;;4806995;29;20153;-60
2023/02/08 08:42:46;;;;;;;89.30;39.42;;;;;;;;;;4807039;29;20058;-59
2023/02/08 08:45:13;;;;;;;84.20;37.95;;;;;;;;;;4807094;29;20027;-60
2023/02/08 08:47:39;;;;;;;76.50;36.78;;;;;;;;;;4807088;29;20034;-60
2023/02/08 08:50:05;;;;;;;78.47;37.35;;;;;;;;;;4806869;29;20039;-59
2023/02/08 08:52:31;;;;;;;84.68;36.83;;;;;;;;;;4824675;29;20085;-59
2023/02/08 08:54:57;;;;;;;78.70;37.05;;;;;;;;;;4825074;29;20030;-59
2023/02/08 08:57:23;;;;;;;78.30;36.78;;;;;;;;;;4825009;29;20476;-60
2023/02/08 08:59:49;;;;;;;76.18;35.45;;;;;;;;;;4824948;29;20637;-60
2023/02/08 09:02:15;;;;;;;79.10;35.65;;;;;;;;;;4824941;29;20037;-59
2023/02/08 09:04:41;;;;;;;98.93;42.80;;;;;;;;;;4824551;29;20034;-59
2023/02/08 09:07:08;;;;;;;91.63;41.35;;;;;;;;;;4824495;29;20046;-60
2023/02/08 09:09:34;;;;;;;78.78;38.50;;;;;;;;;;4824821;29;20034;-60
2023/02/08 09:12:01;;;;;;;86.35;38.25;;;;;;;;;;4824791;29;20034;-59
2023/02/08 09:14:27;;;;;;;79.13;36.78;;;;;;;;;;4824390;29;20033;-60
2023/02/08 09:16:53;;;;;;;83.32;38.35;;;;;;;;;;4824506;29;20034;-59
2023/02/08 09:19:19;;;;;;;73.20;33.08;;;;;;;;;;4808065;29;20151;-60
2023/02/08 09:21:45;;;;;;;80.70;36.05;;;;;;;;;;4824430;29;20045;-73
2023/02/08 09:24:12;;;;;;;79.13;36.55;;;;;;;;;;4824352;29;20532;-60
2023/02/08 09:26:38;;;;;;;75.72;36.00;;;;;;;;;;4824570;29;20122;-60
2023/02/08 09:29:04;;;;;;;77.30;33.78;;;;;;;;;;4824323;29;20027;-59
2023/02/08 09:31:31;;;;;;;69.60;32.72;;;;;;;;;;4823548;29;20042;-59
2023/02/08 09:33:59;;;;;;;71.47;33.67;;;;;;;;;;4824316;29;20026;-58
2023/02/08 09:36:26;;;;;;;70.82;33.47;;;;;;;;;;4808046;29;20039;-59
2023/02/08 09:38:59;;;;;;;74.28;35.28;;;;;;;;;;4823907;29;20030;-60
2023/02/08 09:41:37;;;;;;;64.97;31.40;;;;;;;;;;4824452;29;20367;-73
2023/02/08 09:44:06;;;;;;;66.68;32.60;;;;;;;;;;4813177;29;20046;-68
2023/02/08 09:46:37;;;;;;;75.90;36.05;;;;;;;;;;4805640;29;20042;-64
2023/02/08 09:49:04;;;;;;;71.25;34.80;;;;;;;;;;4804947;29;20118;-59
2023/02/08 09:51:33;;;;;;;74.40;35.72;;;;;;;;;;4804421;29;20099;-58
2023/02/08 09:54:03;;;;;;;82.07;38.50;;;;;;;;;;4804682;29;20171;-64
2023/02/08 09:56:32;;;;;;;69.78;34.35;;;;;;;;;;4805477;29;20030;-59
2023/02/08 09:59:00;;;;;;;56.88;26.75;;;;;;;;;;4804408;29;20038;-67
2023/02/08 10:01:33;;;;;;;59.80;26.40;;;;;;;;;;4805762;29;20038;-59
2023/02/08 10:04:05;;;;;;;56.65;26.50;;;;;;;;;;4805080;29;20104;-60
2023/02/08 10:06:31;;;;;;;59.50;26.80;;;;;;;;;;4804808;29;20049;-64
2023/02/08 10:08:58;;;;;;;51.35;24.95;;;;;;;;;;4788249;29;20478;-59
2023/02/08 10:11:47;;;;;;;49.65;23.85;;;;;;;;;;4804355;29;20023;-59
2023/02/08 10:14:21;;;;;;;47.17;22.10;;;;;;;;;;4805356;29;20558;-59
2023/02/08 10:16:53;;;;;;;44.92;22.70;;;;;;;;;;4805155;29;20031;-58
2023/02/08 10:19:19;;;;;;;;;;;;;;;;;;4805719;29;20468;-59
2023/02/08 10:21:51;;;;;;;45.05;23.17;;;;;;;;;;4805196;29;19925;-74
2023/02/08 10:24:23;;;;;;;54.15;24.70;;;;;;;;;;4805279;29;20035;-68
2023/02/08 10:26:55;;;;;;;48.22;24.00;;;;;;;;;;4805391;29;20062;-60
2023/02/08 10:29:21;;;;;;;;;;;;;;;;;;4805857;29;20022;-68
2023/02/08 10:32:02;;;;;;;56.53;27.92;;;;;;;;;;4804072;29;20408;-64
2023/02/08 10:34:43;;;;;;;61.70;28.80;;;;;;;;;;4803288;29;20035;-66
2023/02/08 10:37:20;;;;;;;61.50;29.23;;;;;;;;;;4803679;29;20488;-58
2023/02/08 10:39:48;;;;;;;61.15;29.25;;;;;;;;;;4804465;29;20472;-70
2023/02/08 10:42:19;;;;;;;61.50;28.75;;;;;;;;;;4805230;29;20103;-58
2023/02/08 10:44:57;;;;;;;60.58;29.05;;;;;;;;;;4803908;29;20439;-58
2023/02/08 10:47:42;;;;;;;59.60;28.50;;;;;;;;;;4803727;29;20180;-59
2023/02/08 10:50:30;;;;;;;63.08;29.17;;;;;;;;;;4801136;29;20062;-58
2023/02/08 10:52:56;;;;;;;65.50;31.02;;;;;;;;;;4785925;29;20212;-58
2023/02/08 10:55:22;;;;;;;59.17;28.83;;;;;;;;;;4804818;29;20499;-59
2023/02/08 10:57:51;;;;;;;61.67;28.40;;;;;;;;;;4804820;29;20428;-63
2023/02/08 11:00:21;;;;;;;56.78;27.58;;;;;;;;;;4804684;29;20037;-59
2023/02/08 11:02:50;;;;;;;53.92;26.50;;;;;;;;;;4804925;29;20086;-73
2023/02/08 11:05:23;;;;;;;66.72;31.20;;;;;;;;;;4804436;29;20041;-64
2023/02/08 11:08:04;;;;;;;54.80;25.38;;;;;;;;;;4804613;29;20042;-65
2023/02/08 11:10:30;;;;;;;47.67;24.55;;;;;;;;;;4804756;29;20096;-60
2023/02/08 11:13:05;;;;;;;50.67;25.80;;;;;;;;;;4804427;29;20039;-61
2023/02/08 11:15:37;;;;;;;64.13;30.42;;;;;;;;;;4804441;29;20115;-58
2023/02/08 11:18:03;;;;;;;;;;;;;;;;;;4804459;29;20041;-58
2023/02/08 11:20:35;;;;;;;50.42;24.67;;;;;;;;;;4803822;29;20018;-61
2023/02/08 11:23:02;;;;;;;42.00;20.35;;;;;;;;;;4804293;29;20031;-75
2023/02/08 11:25:32;;;;;;;50.70;24.85;;;;;;;;;;4804504;29;20086;-64
2023/02/08 11:27:59;;;;;;;53.72;25.90;;;;;;;;;;4804564;29;20106;-59
2023/02/08 11:30:25;;;;;;;55.00;26.52;;;;;;;;;;4804465;29;20395;-63
2023/02/08 11:33:10;;;;;;;51.72;25.27;;;;;;;;;;4804105;29;20432;-61
2023/02/08 11:35:36;;;;;;;56.45;28.45;;;;;;;;;;4804162;29;20031;-65
2023/02/08 11:38:02;;;;;;;49.88;26.65;;;;;;;;;;4804560;29;20048;-60
2023/02/08 11:40:36;;;;;;;53.95;27.38;;;;;;;;;;4787813;29;20584;-75
2023/02/08 11:43:02;;;;;;;53.70;27.35;;;;;;;;;;4804253;29;20027;-59
2023/02/08 11:45:30;;;;;;;38.03;20.42;;;;;;;;;;4804130;29;20118;-71
2023/02/08 11:47:56;;;;;;;37.58;18.75;;;;;;;;;;4803912;29;20046;-72
2023/02/08 11:50:43;;;;;;;41.40;20.40;;;;;;;;;;4803754;29;20115;-62
2023/02/08 11:53:41;;;;;;;43.55;21.00;;;;;;;;;;4803613;29;20084;-66
2023/02/08 11:56:20;;;;;;;38.85;19.60;;;;;;;;;;4729693;30;20059;-59
2023/02/08 11:59:11;;;;;;;39.53;19.13;;;;;;;;;;4730479;30;20048;-59
2023/02/08 12:01:38;;;;;;;41.67;20.23;;;;;;;;;;4712150;30;20044;-59
2023/02/08 12:04:06;;;;;;;44.63;22.20;;;;;;;;;;4711537;30;20056;-59
2023/02/08 12:06:50;;;;;;;35.85;19.05;;;;;;;;;;4711300;30;20056;-60
2023/02/08 12:09:16;;;;;;;35.65;18.63;;;;;;;;;;4709424;30;20052;-59
2023/02/08 12:11:44;;;;;;;40.22;19.80;;;;;;;;;;4711604;30;20081;-59
2023/02/08 12:14:25;;;;;;;42.47;21.60;;;;;;;;;;4711440;30;20037;-59
2023/02/08 12:17:00;;;;;;;46.03;22.35;;;;;;;;;;4711347;30;20029;-70
2023/02/08 12:19:38;;;;;;;48.15;22.40;;;;;;;;;;4711400;30;20089;-71
2023/02/08 12:22:11;;;;;;;49.75;22.45;;;;;;;;;;4710729;30;20069;-59
2023/02/08 12:24:56;;;;;;;42.13;21.52;;;;;;;;;;4709559;30;20410;-67
2023/02/08 12:27:34;;;;;;;41.95;20.92;;;;;;;;;;4710270;30;20137;-65
2023/02/08 12:30:15;;;;;;;43.53;19.73;;;;;;;;;;4711318;30;20037;-59
2023/02/08 12:32:59;;;;;;;44.30;21.25;;;;;;;;;;4760547;30;20055;-67
2023/02/08 12:35:44;;;;;;;43.83;21.65;;;;;;;;;;4750802;30;20420;-58
2023/02/08 12:41:07;;;;;;;40.40;20.15;;;;;;;;;;4785821;30;20084;-59
2023/02/08 12:43:57;;;;;;;41.92;21.58;;;;;;;;;;4785852;30;20041;-58
2023/02/08 12:46:32;;;;;;;41.75;21.38;;;;;;;;;;4782837;29;20100;-59
2023/02/08 12:49:01;;;;;;;42.38;19.65;;;;;;;;;;4785633;30;20055;-59
2023/02/08 12:51:30;;;;;;;46.70;21.55;;;;;;;;;;4785122;29;20093;-59
2023/02/08 12:53:58;;;;;;;48.95;21.73;;;;;;;;;;4785328;30;20027;-60
2023/02/08 12:56:32;;;;;;;42.47;22.33;;;;;;;;;;4785667;30;20404;-60
2023/02/08 12:58:59;;;;;;;48.40;23.20;;;;;;;;;;4785518;30;20019;-59
2023/02/08 13:01:28;;;;;;;43.47;21.95;;;;;;;;;;4800182;29;20054;-60
2023/02/08 13:03:57;;;;;;;47.53;23.17;;;;;;;;;;4802214;29;20517;-69
2023/02/08 13:06:25;;;;;;;52.28;24.20;;;;;;;;;;4803424;29;20657;-59
2023/02/08 13:09:02;;;;;;;55.55;25.48;;;;;;;;;;4806743;29;20082;-59
2023/02/08 13:11:48;;;;;;;47.53;23.50;;;;;;;;;;4806809;29;20038;-62
2023/02/08 13:14:23;;;;;;;43.38;21.55;;;;;;;;;;4806471;29;20468;-59
2023/02/08 13:16:51;;;;;;;49.60;23.17;;;;;;;;;;4805563;29;20047;-60
2023/02/08 13:19:20;;;;;;;47.75;23.35;;;;;;;;;;4806170;29;20056;-60
2023/02/08 13:21:48;;;;;;;44.63;21.73;;;;;;;;;;4805891;29;20142;-60
2023/02/08 13:24:35;;;;;;;47.33;23.67;;;;;;;;;;4806599;29;20031;-70
2023/02/08 13:27:02;;;;;;;45.42;21.88;;;;;;;;;;4806400;29;20073;-60
2023/02/08 13:29:29;;;;;;;49.28;23.52;;;;;;;;;;4806536;29;20027;-68
2023/02/08 13:32:04;;;;;;;52.25;23.00;;;;;;;;;;4806580;29;20034;-60
2023/02/08 13:34:37;;;;;;;45.85;21.20;;;;;;;;;;4805833;29;20067;-61
2023/02/08 13:37:05;;;;;;;42.65;20.45;;;;;;;;;;4806038;29;20027;-65
2023/02/08 13:39:41;;;;;;;41.70;20.63;;;;;;;;;;4806168;29;20035;-61
2023/02/08 13:42:17;;;;;;;43.45;20.60;;;;;;;;;;4806312;29;20043;-61
2023/02/08 13:44:48;;;;;;;42.15;20.73;;;;;;;;;;4806256;29;20038;-60
2023/02/08 13:47:22;;;;;;;48.08;22.92;;;;;;;;;;4805886;29;20049;-60
2023/02/08 13:49:54;;;;;;;46.30;21.42;;;;;;;;;;4805761;29;20042;-61
2023/02/08 13:52:49;;;;;;;39.78;20.42;;;;;;;;;;4821832;29;20457;-65
2023/02/08 13:55:32;;;;;;;42.05;20.77;;;;;;;;;;4749943;30;20511;-61
2023/02/08 13:57:58;;;;;;;44.08;20.50;;;;;;;;;;4749909;30;20549;-59
2023/02/08 14:00:25;;;;;;;42.60;21.63;;;;;;;;;;4749910;30;20040;-61
2023/02/08 14:02:58;;;;;;;41.05;20.45;;;;;;;;;;4750209;30;20481;-61
2023/02/08 14:05:30;;;;;;;41.05;20.42;;;;;;;;;;4749594;30;20091;-69
2023/02/08 14:07:58;;;;;;;37.03;19.25;;;;;;;;;;4749706;30;20040;-60
2023/02/08 14:10:36;;;;;;;38.80;19.35;;;;;;;;;;4749683;30;20040;-71
2023/02/08 14:13:37;;;;;;;35.70;17.73;;;;;;;;;;4749475;30;20040;-60
2023/02/08 14:16:21;;;;;;;41.25;19.58;;;;;;;;;;4714769;30;20049;-60
2023/02/08 14:18:51;;;;;;;41.08;20.75;;;;;;;;;;4713291;30;20107;-61
2023/02/08 14:21:27;;;;;;;43.97;21.35;;;;;;;;;;4713672;30;20045;-62
2023/02/08 14:24:00;;;;;;;40.67;20.10;;;;;;;;;;4713902;30;20057;-62
2023/02/08 14:26:26;;;;;;;39.60;18.77;;;;;;;;;;4714198;30;20542;-62
2023/02/08 14:28:54;;;;;;;38.97;19.42;;;;;;;;;;4713725;30;20037;-61
2023/02/08 14:31:22;;;;;;;40.67;19.58;;;;;;;;;;4739603;30;20053;-61
2023/02/08 14:33:53;;;;;;;44.75;21.58;;;;;;;;;;4784285;30;20047;-62
2023/02/08 14:36:33;;;;;;;44.05;20.77;;;;;;;;;;4784891;30;20563;-61
2023/02/08 14:39:23;;;;;;;44.33;20.33;;;;;;;;;;4784920;30;20039;-61
2023/02/08 14:41:49;;;;;;;42.30;20.67;;;;;;;;;;4784834;29;20429;-61
2023/02/08 14:44:33;;;;;;;42.28;19.13;;;;;;;;;;4784586;30;20481;-61
2023/02/08 14:46:59;;;;;;;38.13;18.70;;;;;;;;;;4784470;30;20058;-61
2023/02/08 14:49:26;;;;;;;42.10;18.05;;;;;;;;;;4794417;29;20403;-62
2023/02/08 14:51:57;;;;;;;40.30;17.20;;;;;;;;;;4822633;29;20054;-62
2023/02/08 14:54:27;;;;;;;51.30;19.63;;;;;;;;;;4822913;29;20049;-61
2023/02/08 14:57:04;;;;;;;42.00;18.98;;;;;;;;;;4823405;29;20270;-61
2023/02/08 14:59:31;;;;;;;40.97;18.50;;;;;;;;;;4823086;29;20034;-61
2023/02/08 15:01:59;;;;;;;51.10;19.38;;;;;;;;;;4823083;29;20031;-65
2023/02/08 15:04:25;;;;;;;40.70;18.58;;;;;;;;;;4822908;29;20109;-61
2023/02/08 15:06:57;;;;;;;44.55;20.17;;;;;;;;;;4822717;29;20057;-61
2023/02/08 15:09:25;;;;;;;46.80;19.00;;;;;;;;;;4822527;29;20497;-61
2023/02/08 15:12:11;;;;;;;47.40;20.85;;;;;;;;;;4822820;29;20031;-62
2023/02/08 15:14:39;;;;;;;45.17;21.10;;;;;;;;;;4810110;29;20130;-65
2023/02/08 15:17:06;;;;;;;43.22;19.20;;;;;;;;;;4822793;29;20018;-61
2023/02/08 15:19:34;;;;;;;41.20;19.63;;;;;;;;;;4822893;29;20165;-61
2023/02/08 15:22:16;;;;;;;44.10;21.67;;;;;;;;;;4822493;29;20038;-61
2023/02/08 15:24:52;;;;;;;46.20;21.98;;;;;;;;;;4822833;29;20031;-61
2023/02/08 15:27:28;;;;;;;55.05;23.75;;;;;;;;;;4822789;29;20077;-63
2023/02/08 15:29:55;;;;;;;57.55;25.08;;;;;;;;;;4821723;29;20031;-62
2023/02/08 15:32:22;;;;;;;60.90;28.13;;;;;;;;;;4822601;29;20034;-62
2023/02/08 15:34:57;;;;;;;61.30;26.83;;;;;;;;;;4822348;29;20031;-61
2023/02/08 15:37:23;;;;;;;59.80;26.92;;;;;;;;;;4822220;29;20417;-61
2023/02/08 15:39:51;;;;;;;60.10;27.25;;;;;;;;;;4822013;29;20062;-61
2023/02/08 15:42:23;;;;;;;65.78;28.00;;;;;;;;;;4822227;29;20023;-65
2023/02/08 15:44:49;;;;;;;78.90;34.60;;;;;;;;;;4822315;29;20041;-60
2023/02/08 15:47:21;;;;;;;77.80;33.10;;;;;;;;;;4822107;29;20062;-63
2023/02/08 15:49:49;;;;;;;67.95;31.67;;;;;;;;;;4822110;29;20034;-62
2023/02/08 15:52:17;;;;;;;52.25;26.05;;;;;;;;;;4821588;29;20050;-60
2023/02/08 15:54:44;;;;;;;54.13;25.60;;;;;;;;;;4822381;29;20030;-59
2023/02/08 15:57:16;;;;;;;57.40;26.25;;;;;;;;;;4822294;29;20429;-62
2023/02/08 15:59:45;;;;;;;50.85;24.73;;;;;;;;;;4821968;29;20030;-59
2023/02/08 16:02:22;;;;;;;64.07;27.38;;;;;;;;;;4821980;29;20038;-60
2023/02/08 16:04:49;;;;;;;72.32;29.75;;;;;;;;;;4822237;29;20034;-60
2023/02/08 16:07:36;;;;;;;73.00;31.08;;;;;;;;;;4822042;29;20043;-59
2023/02/08 16:10:03;;;;;;;66.47;28.33;;;;;;;;;;4822187;29;20042;-62
2023/02/08 16:12:30;;;;;;;66.00;30.30;;;;;;;;;;4821937;29;20399;-62
2023/02/08 16:14:56;;;;;;;70.90;31.77;;;;;;;;;;4822321;29;20026;-64
2023/02/08 16:17:33;;;;;;;74.75;32.63;;;;;;;;;;4822213;29;20479;-62
2023/02/08 16:19:59;;;;;;;71.55;31.63;;;;;;;;;;4822104;29;20050;-61
2023/02/08 16:22:27;;;;;;;75.30;33.45;;;;;;;;;;4821749;29;20030;-62
2023/02/08 16:24:54;;;;;;;72.15;32.78;;;;;;;;;;4821683;29;20070;-62
2023/02/08 16:27:28;;;;;;;73.22;32.08;;;;;;;;;;4821793;29;20041;-62
2023/02/08 16:29:54;;;;;;;67.35;31.70;;;;;;;;;;4821596;29;20034;-62
2023/02/08 16:32:20;;;;;;;73.20;32.75;;;;;;;;;;4821730;29;20042;-61
2023/02/08 16:34:46;;;;;;;78.07;32.42;;;;;;;;;;4821878;29;20043;-63
2023/02/08 16:37:29;;;;;;;84.65;33.22;;;;;;;;;;4821484;29;20516;-62
2023/02/08 16:39:58;;;;;;;91.95;33.17;;;;;;;;;;4821864;29;20523;-62
2023/02/08 16:42:25;;;;;;;75.30;30.98;;;;;;;;;;4824498;29;20505;-61
2023/02/08 16:45:11;;;;;;;83.32;33.60;;;;;;;;;;4824927;29;20026;-62
2023/02/08 16:47:40;;;;;;;81.45;33.95;;;;;;;;;;4824943;29;20038;-62
2023/02/08 16:50:07;;;;;;;91.40;38.63;;;;;;;;;;4825017;29;20038;-62
2023/02/08 16:52:33;;;;;;;87.85;35.47;;;;;;;;;;4824430;29;20066;-61
2023/02/08 16:54:59;;;;;;;89.43;35.63;;;;;;;;;;4824965;29;20031;-61
2023/02/08 16:57:37;;;;;;;82.90;35.95;;;;;;;;;;4825119;29;20364;-62
2023/02/08 17:00:12;;;;;;;97.88;39.67;;;;;;;;;;4824662;29;20487;-62
2023/02/08 17:02:38;;;;;;;92.82;40.70;;;;;;;;;;4824922;29;20034;-62
2023/02/08 17:05:04;;;;;;;98.47;40.90;;;;;;;;;;4824853;29;20035;-61
2023/02/08 17:07:30;;;;;;;89.75;41.08;;;;;;;;;;4824259;29;20046;-62
2023/02/08 17:09:57;;;;;;;91.88;39.33;;;;;;;;;;4824622;29;20078;-61
2023/02/08 17:12:23;;;;;;;83.70;37.45;;;;;;;;;;4824775;29;20026;-62
2023/02/08 17:14:49;;;;;;;105.00;44.97;;;;;;;;;;4824672;29;20030;-62
2023/02/08 17:17:15;;;;;;;95.93;41.55;;;;;;;;;;4823384;29;20030;-62
2023/02/08 17:19:43;;;;;;;91.05;40.50;;;;;;;;;;4824666;29;20030;-61
2023/02/08 17:22:09;;;;;;;88.15;37.15;;;;;;;;;;4824505;29;20041;-62
2023/02/08 17:24:35;;;;;;;85.25;38.80;;;;;;;;;;4824377;29;20038;-62
2023/02/08 17:27:01;;;;;;;82.70;37.80;;;;;;;;;;4824407;29;20491;-66
2023/02/08 17:29:27;;;;;;;93.13;40.83;;;;;;;;;;4823920;29;20073;-60
2023/02/08 17:31:53;;;;;;;87.05;39.38;;;;;;;;;;4824058;29;20436;-62
2023/02/08 17:34:19;;;;;;;86.55;40.55;;;;;;;;;;4824213;29;20033;-62
2023/02/08 17:36:45;;;;;;;96.90;42.38;;;;;;;;;;4824217;29;20042;-61
2023/02/08 17:39:11;;;;;;;91.57;42.17;;;;;;;;;;4824157;29;20058;-66
2023/02/08 17:41:38;;;;;;;96.00;41.83;;;;;;;;;;4824327;29;20034;-62
2023/02/08 17:44:05;;;;;;;98.35;41.25;;;;;;;;;;4824091;29;20135;-62
2023/02/08 17:46:32;;;;;;;97.22;43.80;;;;;;;;;;4823798;29;20034;-61
2023/02/08 17:49:00;;;;;;;92.65;42.35;;;;;;;;;;4823868;29;20034;-62
2023/02/08 17:51:26;;;;;;;86.07;40.20;;;;;;;;;;4814129;29;20090;-71
2023/02/08 17:53:52;;;;;;;85.32;39.95;;;;;;;;;;4804766;29;20123;-71
2023/02/08 17:56:23;;;;;;;84.30;39.35;;;;;;;;;;4806175;29;20038;-66
2023/02/08 17:58:50;;;;;;;96.65;42.70;;;;;;;;;;4805799;29;20030;-73
2023/02/08 18:01:20;;;;;;;102.30;42.97;;;;;;;;;;4805741;29;20428;-63
2023/02/08 18:03:48;;;;;;;101.53;44.85;;;;;;;;;;4806036;29;20146;-61
2023/02/08 18:06:14;;;;;;;90.80;40.38;;;;;;;;;;4806105;29;20049;-62
2023/02/08 18:08:40;;;;;;;82.35;35.28;;;;;;;;;;4805988;29;20058;-62
2023/02/08 18:11:18;;;;;;;78.70;37.05;;;;;;;;;;4805826;29;20034;-61
2023/02/08 18:13:45;;;;;;;69.03;31.73;;;;;;;;;;4805729;29;20149;-62
2023/02/08 18:16:12;;;;;;;59.30;28.23;;;;;;;;;;4805772;29;20171;-70
2023/02/08 18:18:39;;;;;;;59.17;26.50;;;;;;;;;;4805113;29;20564;-67
2023/02/08 18:21:09;;;;;;;56.80;25.05;;;;;;;;;;4805191;29;20126;-61
2023/02/08 18:23:35;;;;;;;57.60;25.25;;;;;;;;;;4805190;29;20503;-65
2023/02/08 18:26:08;;;;;;;53.50;25.73;;;;;;;;;;4805549;29;20502;-63
2023/02/08 18:28:34;;;;;;;61.40;25.90;;;;;;;;;;4805352;29;20031;-62
2023/02/08 18:31:05;;;;;;;61.00;26.25;;;;;;;;;;4805078;29;20033;-63
2023/02/08 18:33:31;;;;;;;54.85;26.05;;;;;;;;;;4805275;29;20106;-61
2023/02/08 18:35:57;;;;;;;59.13;26.48;;;;;;;;;;4805310;29;20030;-63
2023/02/08 18:38:24;;;;;;;57.83;27.95;;;;;;;;;;4805348;29;20039;-63
2023/02/08 18:40:51;;;;;;;61.83;28.08;;;;;;;;;;4805291;29;20049;-62
2023/02/08 18:43:17;;;;;;;68.45;31.95;;;;;;;;;;4804978;29;20039;-62
2023/02/08 18:45:44;;;;;;;74.45;34.38;;;;;;;;;;4804733;29;20114;-61
2023/02/08 18:48:10;;;;;;;78.03;34.30;;;;;;;;;;4805005;29;20031;-63
2023/02/08 18:50:37;;;;;;;74.10;33.80;;;;;;;;;;4804959;29;20062;-62
2023/02/08 18:53:03;;;;;;;72.63;34.55;;;;;;;;;;4805018;29;20109;-62
2023/02/08 18:55:29;;;;;;;80.35;36.35;;;;;;;;;;4805222;29;20023;-62
2023/02/08 18:57:55;;;;;;;76.40;35.95;;;;;;;;;;4788603;29;20436;-62
2023/02/08 19:00:21;;;;;;;80.90;37.08;;;;;;;;;;4804882;29;20030;-63
2023/02/08 19:02:47;;;;;;;83.95;37.30;;;;;;;;;;4804475;29;20042;-62
2023/02/08 19:05:13;;;;;;;81.00;38.03;;;;;;;;;;4804445;29;20041;-62
2023/02/08 19:07:39;;;;;;;88.35;40.22;;;;;;;;;;4804453;29;20121;-71
2023/02/08 19:10:06;;;;;;;85.88;40.90;;;;;;;;;;4804582;29;20437;-62
2023/02/08 19:12:32;;;;;;;91.50;41.60;;;;;;;;;;4804340;29;20050;-62
2023/02/08 19:14:58;;;;;;;91.57;41.47;;;;;;;;;;4804562;29;20031;-62
2023/02/08 19:17:24;;;;;;;95.40;43.50;;;;;;;;;;4804302;29;20085;-63
2023/02/08 19:19:50;;;;;;;100.63;44.00;;;;;;;;;;4804428;29;20433;-62
2023/02/08 19:22:16;;;;;;;105.93;46.97;;;;;;;;;;4802878;29;20023;-72
2023/02/08 19:24:42;;;;;;;107.93;47.38;;;;;;;;;;4804182;29;20119;-61
2023/02/08 19:27:08;;;;;;;94.13;43.20;;;;;;;;;;4804471;29;20135;-63
2023/02/08 19:29:34;;;;;;;91.88;42.92;;;;;;;;;;4804192;29;20092;-66
2023/02/08 19:32:00;;;;;;;97.30;42.55;;;;;;;;;;4804073;29;20113;-62
2023/02/08 19:34:26;;;;;;;88.20;40.08;;;;;;;;;;4804369;29;20480;-62
2023/02/08 19:36:53;;;;;;;82.97;37.83;;;;;;;;;;4804317;29;20042;-67
2023/02/08 19:39:20;;;;;;;80.18;38.22;;;;;;;;;;4804042;29;20560;-62
2023/02/08 19:41:47;;;;;;;77.45;34.85;;;;;;;;;;4804513;29;20480;-62
2023/02/08 19:44:15;;;;;;;82.53;35.72;;;;;;;;;;4803996;29;20045;-62
2023/02/08 19:46:43;;;;;;;79.30;35.70;;;;;;;;;;4803804;29;20467;-63
2023/02/08 19:49:11;;;;;;;79.82;35.65;;;;;;;;;;4803991;29;20076;-61
2023/02/08 19:51:37;;;;;;;78.65;35.28;;;;;;;;;;4803806;29;20090;-62
2023/02/08 19:54:05;;;;;;;79.00;35.50;;;;;;;;;;4804220;29;20070;-61
2023/02/08 19:56:35;;;;;;;79.40;35.88;;;;;;;;;;4804044;29;20037;-61
2023/02/08 19:59:06;;;;;;;77.10;36.40;;;;;;;;;;4804010;29;20031;-61
2023/02/08 20:01:33;;;;;;;77.60;36.20;;;;;;;;;;4803944;29;20079;-62
2023/02/08 20:03:59;;;;;;;80.00;35.50;;;;;;;;;;4803786;29;20035;-61
2023/02/08 20:06:26;;;;;;;78.45;34.80;;;;;;;;;;4803902;29;20042;-61
2023/02/08 20:08:52;;;;;;;77.00;33.75;;;;;;;;;;4804038;29;20031;-62
2023/02/08 20:11:19;;;;;;;73.72;34.70;;;;;;;;;;4803926;29;20042;-68
2023/02/08 20:13:45;;;;;;;72.03;32.53;;;;;;;;;;4804023;29;20034;-62
2023/02/08 20:16:11;;;;;;;82.05;35.15;;;;;;;;;;4804863;29;20515;-61
2023/02/08 20:18:37;;;;;;;78.53;34.80;;;;;;;;;;4807775;29;20039;-63
2023/02/08 20:21:04;;;;;;;78.50;33.60;;;;;;;;;;4807634;29;20047;-65
2023/02/08 20:23:30;;;;;;;78.32;34.80;;;;;;;;;;4807536;29;20398;-61